sensor_id;sensor_type;location;lat;lon;timestamp;pressure;altitude;pressure_sealevel;temperature;humidity
31285;BME280;56605;51.516;6.742;2022-12-20T07:18:24;101090.59;;;9.46;100.00
31285;BME280;56605;51.516;6.742;2022-12-20T07:20:49;101084.63;;;9.52;100.00
31285;BME280;56605;51.516;6.742;2022-12-20T07:23:14;101078.03;;;9.56;100.00
31285;BME280;56605;51.516;6.742;2022-12-20T07:25:40;101077.66;;;9.51;100.00
31285;BME280;56605;51.516;6.742;2022-12-20T07:28:05;101085.19;;;9.56;100.00
31285;BME280;56605;51.516;6.742;2022-12-20T07:30:30;101066.69;;;9.54;100.00
31285;BME280;56605;51.516;6.742;2022-12-20T07:32:56;101075.75;;;9.61;100.00
31285;BME280;56605;51.516;6.742;2022-12-20T07:35:22;101078.56;;;9.60;100.00
31285;BME280;56605;51.516;6.742;2022-12-20T07:37:48;101075.88;;;9.60;100.00
31285;BME280;56605;51.516;6.742;2022-12-20T07:40:13;101082.75;;;9.62;100.00
31285;BME280;56605;51.516;6.742;2022-12-20T07:42:40;101071.63;;;9.67;100.00
31285;BME280;56605;51.516;6.742;2022-12-20T07:45:06;101081.22;;;9.60;100.00
31285;BME280;56605;51.516;6.742;2022-12-20T07:47:31;101073.47;;;9.67;100.00
31285;BME280;56605;51.516;6.742;2022-12-20T07:49:56;101073.72;;;9.82;100.00
31285;BME280;56605;51.516;6.742;2022-12-20T07:52:23;101079.00;;;9.73;100.00
31285;BME280;56605;51.516;6.742;2022-12-20T07:54:52;101079.41;;;9.79;100.00
31285;BME280;56605;51.516;6.742;2022-12-20T07:57:22;101084.94;;;9.85;100.00
31285;BME280;56605;51.516;6.742;2022-12-20T07:59:53;101088.16;;;9.89;100.00
31285;BME280;56605;51.516;6.742;2022-12-20T08:02:31;101086.84;;;9.93;100.00
31285;BME280;56605;51.516;6.742;2022-12-20T08:04:58;101098.47;;;9.92;100.00
31285;BME280;56605;51.516;6.742;2022-12-20T08:07:24;101094.91;;;10.01;100.00
31285;BME280;56605;51.516;6.742;2022-12-20T08:09:51;101092.81;;;10.13;100.00
31285;BME280;56605;51.516;6.742;2022-12-20T08:12:17;101091.16;;;10.12;100.00
31285;BME280;56605;51.516;6.742;2022-12-20T08:14:44;101082.19;;;10.22;100.00
31285;BME280;56605;51.516;6.742;2022-12-20T08:17:09;101075.00;;;10.14;100.00
31285;BME280;56605;51.516;6.742;2022-12-20T08:19:36;101068.84;;;10.22;100.00
31285;BME280;56605;51.516;6.742;2022-12-20T08:22:01;101072.25;;;10.32;100.00
31285;BME280;56605;51.516;6.742;2022-12-20T08:24:26;101058.88;;;10.24;100.00
31285;BME280;56605;51.516;6.742;2022-12-20T08:26:52;101064.75;;;10.27;100.00
31285;BME280;56605;51.516;6.742;2022-12-20T08:29:17;101065.94;;;10.33;100.00
31285;BME280;56605;51.516;6.742;2022-12-20T08:31:43;101063.28;;;10.33;100.00
31285;BME280;56605;51.516;6.742;2022-12-20T08:34:08;101063.94;;;10.35;100.00
31285;BME280;56605;51.516;6.742;2022-12-20T08:36:34;101054.59;;;10.39;100.00
31285;BME280;56605;51.516;6.742;2022-12-20T08:39:04;101066.66;;;10.44;100.00
31285;BME280;56605;51.516;6.742;2022-12-20T08:41:29;101071.00;;;10.45;100.00
31285;BME280;56605;51.516;6.742;2022-12-20T08:43:55;101075.47;;;10.44;100.00
31285;BME280;56605;51.516;6.742;2022-12-20T08:46:20;101068.19;;;10.46;100.00
31285;BME280;56605;51.516;6.742;2022-12-20T08:48:45;101065.13;;;10.41;100.00
31285;BME280;56605;51.516;6.742;2022-12-20T08:51:11;101065.81;;;10.43;100.00
31285;BME280;56605;51.516;6.742;2022-12-20T08:53:37;101082.69;;;10.44;100.00
31285;BME280;56605;51.516;6.742;2022-12-20T08:56:11;101057.28;;;10.39;100.00
31285;BME280;56605;51.516;6.742;2022-12-20T08:58:37;101067.88;;;10.49;100.00
31285;BME280;56605;51.516;6.742;2022-12-20T09:01:05;101061.69;;;10.49;100.00
31285;BME280;56605;51.516;6.742;2022-12-20T09:03:33;101059.78;;;10.41;100.00
31285;BME280;56605;51.516;6.742;2022-12-20T09:05:59;101071.88;;;10.45;100.00
31285;BME280;56605;51.516;6.742;2022-12-20T09:08:25;101062.44;;;10.41;100.00
31285;BME280;56605;51.516;6.742;2022-12-20T09:10:51;101066.38;;;10.47;100.00
31285;BME280;56605;51.516;6.742;2022-12-20T09:13:17;101064.06;;;10.52;100.00
31285;BME280;56605;51.516;6.742;2022-12-20T09:15:42;101075.75;;;10.51;100.00
31285;BME280;56605;51.516;6.742;2022-12-20T09:18:09;101068.69;;;10.50;100.00
31285;BME280;56605;51.516;6.742;2022-12-20T09:20:34;101070.41;;;10.51;100.00
31285;BME280;56605;51.516;6.742;2022-12-20T09:22:59;101065.88;;;10.51;100.00
31285;BME280;56605;51.516;6.742;2022-12-20T09:25:26;101067.03;;;10.49;100.00
31285;BME280;56605;51.516;6.742;2022-12-20T09:27:53;101076.81;;;10.40;100.00
31285;BME280;56605;51.516;6.742;2022-12-20T09:30:22;101088.06;;;10.52;100.00
31285;BME280;56605;51.516;6.742;2022-12-20T09:32:47;101089.44;;;10.56;100.00
31285;BME280;56605;51.516;6.742;2022-12-20T09:35:13;101083.44;;;10.54;100.00
31285;BME280;56605;51.516;6.742;2022-12-20T09:37:38;101081.66;;;10.45;100.00
31285;BME280;56605;51.516;6.742;2022-12-20T09:40:04;101079.59;;;10.30;100.00
31285;BME280;56605;51.516;6.742;2022-12-20T09:42:30;101061.94;;;10.37;100.00
31285;BME280;56605;51.516;6.742;2022-12-20T09:45:02;101076.06;;;10.48;100.00
31285;BME280;56605;51.516;6.742;2022-12-20T09:47:32;101076.28;;;10.36;100.00
31285;BME280;56605;51.516;6.742;2022-12-20T09:49:59;101059.88;;;10.23;100.00
31285;BME280;56605;51.516;6.742;2022-12-20T09:52:46;101071.78;;;10.10;100.00
31285;BME280;56605;51.516;6.742;2022-12-20T09:56:04;101063.19;;;9.98;100.00
31285;BME280;56605;51.516;6.742;2022-12-20T10:01:18;101066.13;;;10.13;100.00
31285;BME280;56605;51.516;6.742;2022-12-20T10:03:44;101072.53;;;10.21;100.00
31285;BME280;56605;51.516;6.742;2022-12-20T10:06:16;101070.53;;;10.23;100.00
31285;BME280;56605;51.516;6.742;2022-12-20T10:09:04;101064.50;;;10.21;100.00
31285;BME280;56605;51.516;6.742;2022-12-20T10:16:54;101059.44;;;10.36;100.00
31285;BME280;56605;51.516;6.742;2022-12-20T10:22:19;101049.19;;;10.49;100.00
31285;BME280;56605;51.516;6.742;2022-12-20T10:25:00;101043.22;;;10.56;100.00
31285;BME280;56605;51.516;6.742;2022-12-20T10:27:26;101040.38;;;10.57;100.00
31285;BME280;56605;51.516;6.742;2022-12-20T10:29:52;101037.38;;;10.60;100.00
31285;BME280;56605;51.516;6.742;2022-12-20T10:32:21;101032.03;;;10.52;100.00
31285;BME280;56605;51.516;6.742;2022-12-20T10:35:15;101028.34;;;10.53;100.00
31285;BME280;56605;51.516;6.742;2022-12-20T10:38:05;101023.81;;;10.45;100.00
31285;BME280;56605;51.516;6.742;2022-12-20T10:40:34;101023.84;;;10.53;100.00
31285;BME280;56605;51.516;6.742;2022-12-20T10:43:01;101020.72;;;10.58;100.00
31285;BME280;56605;51.516;6.742;2022-12-20T10:45:37;101020.38;;;10.61;100.00
31285;BME280;56605;51.516;6.742;2022-12-20T10:48:06;101014.72;;;10.64;100.00
31285;BME280;56605;51.516;6.742;2022-12-20T10:50:55;100999.19;;;10.60;100.00
31285;BME280;56605;51.516;6.742;2022-12-20T10:53:22;101004.53;;;10.60;100.00
31285;BME280;56605;51.516;6.742;2022-12-20T10:55:49;101003.88;;;10.66;100.00
31285;BME280;56605;51.516;6.742;2022-12-20T10:58:30;100991.72;;;10.80;100.00
31285;BME280;56605;51.516;6.742;2022-12-20T11:01:17;100997.06;;;10.80;100.00
31285;BME280;56605;51.516;6.742;2022-12-20T11:04:01;100988.25;;;10.88;100.00
31285;BME280;56605;51.516;6.742;2022-12-20T11:06:47;100998.28;;;10.94;100.00
31285;BME280;56605;51.516;6.742;2022-12-20T11:09:31;100991.25;;;10.93;100.00
31285;BME280;56605;51.516;6.742;2022-12-20T11:11:57;100990.28;;;10.94;100.00
31285;BME280;56605;51.516;6.742;2022-12-20T11:14:22;100971.22;;;10.97;100.00
31285;BME280;56605;51.516;6.742;2022-12-20T11:16:50;100972.75;;;11.00;100.00
31285;BME280;56605;51.516;6.742;2022-12-20T11:19:54;100966.25;;;10.94;100.00
31285;BME280;56605;51.516;6.742;2022-12-20T11:22:33;100955.03;;;10.99;100.00
31285;BME280;56605;51.516;6.742;2022-12-20T11:30:39;100968.91;;;11.02;100.00
31285;BME280;56605;51.516;6.742;2022-12-20T11:33:28;100978.44;;;11.05;100.00
31285;BME280;56605;51.516;6.742;2022-12-20T11:36:14;100971.56;;;11.11;100.00
31285;BME280;56605;51.516;6.742;2022-12-20T11:38:47;100968.72;;;10.96;100.00
31285;BME280;56605;51.516;6.742;2022-12-20T11:44:40;100971.06;;;10.82;100.00
31285;BME280;56605;51.516;6.742;2022-12-20T11:50:08;100966.69;;;10.73;100.00
31285;BME280;56605;51.516;6.742;2022-12-20T11:52:45;100958.03;;;10.79;100.00
31285;BME280;56605;51.516;6.742;2022-12-20T11:57:43;100943.34;;;10.91;100.00
31285;BME280;56605;51.516;6.742;2022-12-20T12:00:13;100944.03;;;11.02;100.00
31285;BME280;56605;51.516;6.742;2022-12-20T12:02:43;100956.41;;;11.11;100.00
31285;BME280;56605;51.516;6.742;2022-12-20T12:05:25;100941.53;;;11.09;100.00
31285;BME280;56605;51.516;6.742;2022-12-20T12:08:02;100934.34;;;11.09;100.00
31285;BME280;56605;51.516;6.742;2022-12-20T12:10:36;100933.19;;;11.12;100.00
31285;BME280;56605;51.516;6.742;2022-12-20T12:13:17;100937.19;;;11.16;100.00
31285;BME280;56605;51.516;6.742;2022-12-20T12:18:23;100937.84;;;11.18;100.00
31285;BME280;56605;51.516;6.742;2022-12-20T12:21:07;100937.84;;;11.18;100.00
31285;BME280;56605;51.516;6.742;2022-12-20T12:26:31;100933.34;;;11.27;100.00
31285;BME280;56605;51.516;6.742;2022-12-20T12:29:01;100930.66;;;11.27;100.00
31285;BME280;56605;51.516;6.742;2022-12-20T12:31:34;100928.53;;;11.22;100.00
31285;BME280;56605;51.516;6.742;2022-12-20T12:34:15;100929.84;;;11.26;100.00
31285;BME280;56605;51.516;6.742;2022-12-20T12:42:38;100925.50;;;11.34;100.00
31285;BME280;56605;51.516;6.742;2022-12-20T12:45:19;100928.16;;;11.34;100.00
31285;BME280;56605;51.516;6.742;2022-12-20T12:47:52;100930.81;;;11.42;100.00
31285;BME280;56605;51.516;6.742;2022-12-20T12:50:35;100930.50;;;11.45;100.00
31285;BME280;56605;51.516;6.742;2022-12-20T12:53:05;100924.63;;;11.58;100.00
31285;BME280;56605;51.516;6.742;2022-12-20T12:55:44;100938.00;;;11.50;100.00
31285;BME280;56605;51.516;6.742;2022-12-20T12:58:29;100936.66;;;10.96;100.00
31285;BME280;56605;51.516;6.742;2022-12-20T13:01:04;100940.63;;;10.58;100.00
31285;BME280;56605;51.516;6.742;2022-12-20T13:11:35;100964.03;;;10.03;100.00
31285;BME280;56605;51.516;6.742;2022-12-20T13:16:38;100946.63;;;9.90;100.00
31285;BME280;56605;51.516;6.742;2022-12-20T13:19:16;100945.53;;;10.01;100.00
31285;BME280;56605;51.516;6.742;2022-12-20T13:21:46;100955.19;;;10.02;100.00
31285;BME280;56605;51.516;6.742;2022-12-20T13:24:34;100938.56;;;10.09;100.00
31285;BME280;56605;51.516;6.742;2022-12-20T13:27:01;100948.06;;;10.11;100.00
31285;BME280;56605;51.516;6.742;2022-12-20T13:29:34;100947.88;;;10.05;100.00
31285;BME280;56605;51.516;6.742;2022-12-20T13:32:01;100941.19;;;10.00;100.00
31285;BME280;56605;51.516;6.742;2022-12-20T13:34:51;100942.84;;;10.01;100.00
31285;BME280;56605;51.516;6.742;2022-12-20T13:37:50;100952.88;;;9.99;100.00
31285;BME280;56605;51.516;6.742;2022-12-20T13:40:39;100953.69;;;10.00;100.00
31285;BME280;56605;51.516;6.742;2022-12-20T13:45:56;100953.81;;;9.90;100.00
31285;BME280;56605;51.516;6.742;2022-12-20T13:48:49;100962.28;;;9.85;100.00
31285;BME280;56605;51.516;6.742;2022-12-20T13:51:18;100967.25;;;9.80;100.00
31285;BME280;56605;51.516;6.742;2022-12-20T13:54:07;100968.69;;;9.74;100.00
31285;BME280;56605;51.516;6.742;2022-12-20T13:56:47;100964.91;;;9.77;100.00
31285;BME280;56605;51.516;6.742;2022-12-20T13:59:30;100977.34;;;9.68;100.00
31285;BME280;56605;51.516;6.742;2022-12-20T14:01:59;100968.28;;;9.61;100.00
31285;BME280;56605;51.516;6.742;2022-12-20T14:04:27;100964.16;;;9.67;100.00
31285;BME280;56605;51.516;6.742;2022-12-20T14:07:02;100973.69;;;9.69;100.00
31285;BME280;56605;51.516;6.742;2022-12-20T14:09:31;100962.69;;;9.72;100.00
31285;BME280;56605;51.516;6.742;2022-12-20T14:12:02;100959.19;;;9.72;100.00
31285;BME280;56605;51.516;6.742;2022-12-20T14:14:28;100963.22;;;9.76;100.00
31285;BME280;56605;51.516;6.742;2022-12-20T14:16:54;100964.53;;;9.72;100.00
31285;BME280;56605;51.516;6.742;2022-12-20T14:19:19;100956.75;;;9.79;100.00
31285;BME280;56605;51.516;6.742;2022-12-20T14:21:44;100963.44;;;9.83;100.00
31285;BME280;56605;51.516;6.742;2022-12-20T14:24:14;100969.75;;;9.82;100.00
31285;BME280;56605;51.516;6.742;2022-12-20T14:26:43;100961.75;;;9.82;100.00
31285;BME280;56605;51.516;6.742;2022-12-20T14:29:11;100960.94;;;9.81;100.00
31285;BME280;56605;51.516;6.742;2022-12-20T14:31:40;100966.25;;;9.81;100.00
31285;BME280;56605;51.516;6.742;2022-12-20T14:36:35;100949.56;;;9.79;100.00
31285;BME280;56605;51.516;6.742;2022-12-20T14:39:21;100952.06;;;9.81;100.00
31285;BME280;56605;51.516;6.742;2022-12-20T14:41:54;100946.75;;;9.81;100.00
31285;BME280;56605;51.516;6.742;2022-12-20T14:44:21;100950.09;;;9.83;100.00
31285;BME280;56605;51.516;6.742;2022-12-20T14:46:52;100950.41;;;9.80;100.00
31285;BME280;56605;51.516;6.742;2022-12-20T14:49:22;100958.41;;;9.80;100.00
31285;BME280;56605;51.516;6.742;2022-12-20T14:51:49;100950.56;;;9.78;100.00
31285;BME280;56605;51.516;6.742;2022-12-20T14:54:21;100943.25;;;9.80;100.00
31285;BME280;56605;51.516;6.742;2022-12-20T14:56:50;100945.94;;;9.80;100.00
31285;BME280;56605;51.516;6.742;2022-12-20T14:59:22;100936.78;;;9.83;100.00
31285;BME280;56605;51.516;6.742;2022-12-20T15:01:50;100936.78;;;9.83;100.00
31285;BME280;56605;51.516;6.742;2022-12-20T15:06:46;100931.28;;;9.84;100.00
31285;BME280;56605;51.516;6.742;2022-12-20T15:09:12;100928.94;;;9.81;100.00
31285;BME280;56605;51.516;6.742;2022-12-20T15:11:41;100919.25;;;9.80;100.00
31285;BME280;56605;51.516;6.742;2022-12-20T15:17:12;100925.25;;;9.82;100.00
31285;BME280;56605;51.516;6.742;2022-12-20T15:19:41;100922.25;;;9.77;100.00
31285;BME280;56605;51.516;6.742;2022-12-20T15:22:13;100905.56;;;9.75;100.00
31285;BME280;56605;51.516;6.742;2022-12-20T15:24:40;100919.88;;;9.74;100.00
31285;BME280;56605;51.516;6.742;2022-12-20T15:27:08;100909.56;;;9.79;100.00
31285;BME280;56605;51.516;6.742;2022-12-20T15:29:36;100914.75;;;9.81;100.00
31285;BME280;56605;51.516;6.742;2022-12-20T15:32:16;100916.78;;;9.87;100.00
31285;BME280;56605;51.516;6.742;2022-12-20T15:34:47;100912.78;;;9.83;100.00
31285;BME280;56605;51.516;6.742;2022-12-20T15:37:14;100911.41;;;9.79;100.00
31285;BME280;56605;51.516;6.742;2022-12-20T15:39:40;100914.09;;;9.79;100.00
31285;BME280;56605;51.516;6.742;2022-12-20T15:42:05;100912.72;;;9.74;100.00
31285;BME280;56605;51.516;6.742;2022-12-20T15:44:32;100909.22;;;9.74;100.00
31285;BME280;56605;51.516;6.742;2022-12-20T15:46:57;100909.06;;;9.75;100.00
31285;BME280;56605;51.516;6.742;2022-12-20T15:49:30;100911.19;;;9.72;100.00
31285;BME280;56605;51.516;6.742;2022-12-20T15:51:56;100899.66;;;9.63;100.00
31285;BME280;56605;51.516;6.742;2022-12-20T15:54:30;100903.09;;;9.55;100.00
31285;BME280;56605;51.516;6.742;2022-12-20T15:57:00;100895.63;;;9.59;100.00
31285;BME280;56605;51.516;6.742;2022-12-20T15:59:27;100896.09;;;9.54;100.00
31285;BME280;56605;51.516;6.742;2022-12-20T16:01:53;100902.50;;;9.43;100.00
31285;BME280;56605;51.516;6.742;2022-12-20T16:04:20;100911.00;;;9.38;100.00
31285;BME280;56605;51.516;6.742;2022-12-20T16:06:48;100917.22;;;9.47;100.00
31285;BME280;56605;51.516;6.742;2022-12-20T16:09:14;100910.16;;;9.38;100.00
31285;BME280;56605;51.516;6.742;2022-12-20T16:11:41;100900.84;;;9.42;100.00
31285;BME280;56605;51.516;6.742;2022-12-20T16:14:13;100901.38;;;9.46;100.00
31285;BME280;56605;51.516;6.742;2022-12-20T16:16:39;100903.53;;;9.42;100.00
31285;BME280;56605;51.516;6.742;2022-12-20T16:19:04;100909.91;;;9.49;100.00
31285;BME280;56605;51.516;6.742;2022-12-20T16:21:32;100901.69;;;9.43;100.00
31285;BME280;56605;51.516;6.742;2022-12-20T16:23:57;100906.56;;;9.47;100.00
31285;BME280;56605;51.516;6.742;2022-12-20T16:26:24;100903.53;;;9.42;100.00
31285;BME280;56605;51.516;6.742;2022-12-20T16:28:51;100902.00;;;9.39;100.00
31285;BME280;56605;51.516;6.742;2022-12-20T16:33:46;100898.63;;;9.56;100.00
31285;BME280;56605;51.516;6.742;2022-12-20T16:36:12;100899.31;;;9.58;100.00
31285;BME280;56605;51.516;6.742;2022-12-20T16:38:38;100900.66;;;9.62;100.00
31285;BME280;56605;51.516;6.742;2022-12-20T16:41:15;100898.81;;;9.62;100.00
31285;BME280;56605;51.516;6.742;2022-12-20T16:43:42;100895.31;;;9.62;100.00
31285;BME280;56605;51.516;6.742;2022-12-20T16:46:12;100896.53;;;9.68;100.00
31285;BME280;56605;51.516;6.742;2022-12-20T16:48:38;100890.50;;;9.66;100.00
31285;BME280;56605;51.516;6.742;2022-12-20T16:51:27;100894.00;;;9.66;100.00
31285;BME280;56605;51.516;6.742;2022-12-20T16:53:57;100901.84;;;9.68;100.00
31285;BME280;56605;51.516;6.742;2022-12-20T16:56:24;100893.84;;;9.68;100.00
31285;BME280;56605;51.516;6.742;2022-12-20T16:58:49;100908.84;;;9.69;100.00
31285;BME280;56605;51.516;6.742;2022-12-20T17:01:21;100906.09;;;9.79;100.00
31285;BME280;56605;51.516;6.742;2022-12-20T17:03:50;100900.53;;;9.72;100.00
31285;BME280;56605;51.516;6.742;2022-12-20T17:06:24;100890.56;;;9.74;100.00
31285;BME280;56605;51.516;6.742;2022-12-20T17:08:49;100901.88;;;9.76;100.00
31285;BME280;56605;51.516;6.742;2022-12-20T17:11:24;100896.38;;;9.69;100.00
31285;BME280;56605;51.516;6.742;2022-12-20T17:13:52;100904.72;;;9.74;100.00
31285;BME280;56605;51.516;6.742;2022-12-20T17:16:18;100904.06;;;9.72;100.00
31285;BME280;56605;51.516;6.742;2022-12-20T17:18:45;100896.06;;;9.72;100.00
31285;BME280;56605;51.516;6.742;2022-12-20T17:21:32;100896.38;;;9.69;100.00
31285;BME280;56605;51.516;6.742;2022-12-20T17:23:58;100902.84;;;9.67;100.00
31285;BME280;56605;51.516;6.742;2022-12-20T17:26:26;100896.53;;;9.68;100.00
31285;BME280;56605;51.516;6.742;2022-12-20T17:28:53;100898.34;;;9.67;100.00
31285;BME280;56605;51.516;6.742;2022-12-20T17:31:38;100895.91;;;9.74;100.00
31285;BME280;56605;51.516;6.742;2022-12-20T17:34:06;100898.03;;;9.70;100.00
31285;BME280;56605;51.516;6.742;2022-12-20T17:36:33;100892.91;;;9.77;100.00
31285;BME280;56605;51.516;6.742;2022-12-20T17:38:58;100889.72;;;9.73;100.00
31285;BME280;56605;51.516;6.742;2022-12-20T17:41:29;100891.22;;;9.76;100.00
31285;BME280;56605;51.516;6.742;2022-12-20T17:43:56;100881.72;;;9.73;100.00
31285;BME280;56605;51.516;6.742;2022-12-20T17:46:23;100877.53;;;9.71;100.00
31285;BME280;56605;51.516;6.742;2022-12-20T17:48:48;100893.41;;;9.81;100.00
31285;BME280;56605;51.516;6.742;2022-12-20T17:51:16;100875.75;;;9.80;100.00
31285;BME280;56605;51.516;6.742;2022-12-20T17:53:47;100875.63;;;9.89;100.00
31285;BME280;56605;51.516;6.742;2022-12-20T17:56:14;100869.47;;;9.89;100.00
31285;BME280;56605;51.516;6.742;2022-12-20T17:58:41;100876.00;;;9.95;100.00
31285;BME280;56605;51.516;6.742;2022-12-20T18:01:14;100876.81;;;9.95;100.00
31285;BME280;56605;51.516;6.742;2022-12-20T18:03:41;100883.22;;;9.76;100.00
31285;BME280;56605;51.516;6.742;2022-12-20T18:06:06;100887.69;;;9.67;100.00
31285;BME280;56605;51.516;6.742;2022-12-20T18:08:32;100897.91;;;9.54;100.00
31285;BME280;56605;51.516;6.742;2022-12-20T18:10:57;100894.72;;;9.42;100.00
31285;BME280;56605;51.516;6.742;2022-12-20T18:13:22;100896.47;;;9.33;100.00
31285;BME280;56605;51.516;6.742;2022-12-20T18:15:48;100890.81;;;9.36;100.00
31285;BME280;56605;51.516;6.742;2022-12-20T18:18:13;100881.00;;;9.36;100.00
31285;BME280;56605;51.516;6.742;2022-12-20T18:20:38;100891.34;;;9.39;100.00
31285;BME280;56605;51.516;6.742;2022-12-20T18:23:03;100886.03;;;9.39;100.00
31285;BME280;56605;51.516;6.742;2022-12-20T18:25:29;100894.22;;;9.46;100.00
31285;BME280;56605;51.516;6.742;2022-12-20T18:27:54;100881.72;;;9.47;100.00
31285;BME280;56605;51.516;6.742;2022-12-20T18:30:19;100884.41;;;9.47;100.00
31285;BME280;56605;51.516;6.742;2022-12-20T18:32:45;100883.41;;;9.48;100.00
31285;BME280;56605;51.516;6.742;2022-12-20T18:35:10;100886.22;;;9.46;100.00
31285;BME280;56605;51.516;6.742;2022-12-20T18:37:35;100902.50;;;9.43;100.00
31285;BME280;56605;51.516;6.742;2022-12-20T18:40:01;100893.00;;;9.41;100.00
31285;BME280;56605;51.516;6.742;2022-12-20T18:42:28;100879.38;;;9.44;100.00
31285;BME280;56605;51.516;6.742;2022-12-20T18:44:53;100880.72;;;9.48;100.00
31285;BME280;56605;51.516;6.742;2022-12-20T18:47:18;100883.41;;;9.48;100.00
31285;BME280;56605;51.516;6.742;2022-12-20T18:49:44;100884.41;;;9.47;100.00
31285;BME280;56605;51.516;6.742;2022-12-20T18:52:09;100879.41;;;9.52;100.00
31285;BME280;56605;51.516;6.742;2022-12-20T18:54:34;100878.91;;;9.48;100.00
31285;BME280;56605;51.516;6.742;2022-12-20T18:57:00;100887.38;;;9.44;100.00
31285;BME280;56605;51.516;6.742;2022-12-20T18:59:25;100888.72;;;9.48;100.00
31285;BME280;56605;51.516;6.742;2022-12-20T19:01:51;100891.19;;;9.41;100.00
31285;BME280;56605;51.516;6.742;2022-12-20T19:04:16;100891.19;;;9.41;100.00
31285;BME280;56605;51.516;6.742;2022-12-20T19:06:42;100887.38;;;9.44;100.00
31285;BME280;56605;51.516;6.742;2022-12-20T19:09:10;100892.69;;;9.44;100.00
31285;BME280;56605;51.516;6.742;2022-12-20T19:11:35;100891.41;;;9.48;100.00
31285;BME280;56605;51.516;6.742;2022-12-20T19:14:01;100889.94;;;9.54;100.00
31285;BME280;56605;51.516;6.742;2022-12-20T19:16:28;100891.09;;;9.51;100.00
31285;BME280;56605;51.516;6.742;2022-12-20T19:18:55;100885.59;;;9.52;100.00
31285;BME280;56605;51.516;6.742;2022-12-20T19:21:24;100883.63;;;9.55;100.00
31285;BME280;56605;51.516;6.742;2022-12-20T19:23:52;100876.81;;;9.60;100.00
31285;BME280;56605;51.516;6.742;2022-12-20T19:26:19;100886.38;;;9.71;100.00
31285;BME280;56605;51.516;6.742;2022-12-20T19:28:45;100878.38;;;9.71;100.00
31285;BME280;56605;51.516;6.742;2022-12-20T19:31:31;100875.69;;;9.71;100.00
31285;BME280;56605;51.516;6.742;2022-12-20T19:34:00;100873.16;;;9.61;100.00
31285;BME280;56605;51.516;6.742;2022-12-20T19:36:31;100868.81;;;9.60;100.00
31285;BME280;56605;51.516;6.742;2022-12-20T19:39:00;100880.13;;;9.54;100.00
31285;BME280;56605;51.516;6.742;2022-12-20T19:41:29;100882.28;;;9.50;100.00
31285;BME280;56605;51.516;6.742;2022-12-20T19:43:55;100878.53;;;9.43;100.00
31285;BME280;56605;51.516;6.742;2022-12-20T19:46:21;100884.34;;;9.38;100.00
31285;BME280;56605;51.516;6.742;2022-12-20T19:48:49;100894.63;;;9.33;100.00
31285;BME280;56605;51.516;6.742;2022-12-20T19:51:15;100884.28;;;9.30;100.00
31285;BME280;56605;51.516;6.742;2022-12-20T19:53:42;100882.63;;;9.29;100.00
31285;BME280;56605;51.516;6.742;2022-12-20T19:56:09;100883.47;;;9.30;100.00
31285;BME280;56605;51.516;6.742;2022-12-20T19:58:36;100882.78;;;9.28;100.00
31285;BME280;56605;51.516;6.742;2022-12-20T20:01:03;100877.59;;;9.26;100.00
31285;BME280;56605;51.516;6.742;2022-12-20T20:03:29;100880.41;;;9.24;100.00
31285;BME280;56605;51.516;6.742;2022-12-20T20:05:54;100887.41;;;9.25;100.00
31285;BME280;56605;51.516;6.742;2022-12-20T20:08:20;100883.94;;;9.25;100.00
31285;BME280;56605;51.516;6.742;2022-12-20T20:10:51;100885.06;;;9.22;100.00
31285;BME280;56605;51.516;6.742;2022-12-20T20:13:16;100888.56;;;9.23;100.00
31285;BME280;56605;51.516;6.742;2022-12-20T20:15:48;100884.38;;;9.20;100.00
31285;BME280;56605;51.516;6.742;2022-12-20T20:18:14;100889.72;;;9.20;100.00
31285;BME280;56605;51.516;6.742;2022-12-20T20:20:40;100892.22;;;9.22;100.00
31285;BME280;56605;51.516;6.742;2022-12-20T20:23:06;100900.53;;;9.19;100.00
31285;BME280;56605;51.516;6.742;2022-12-20T20:25:31;100891.53;;;9.20;100.00
31285;BME280;56605;51.516;6.742;2022-12-20T20:27:59;100888.06;;;9.19;100.00
31285;BME280;56605;51.516;6.742;2022-12-20T20:30:25;100891.69;;;9.18;100.00
31285;BME280;56605;51.516;6.742;2022-12-20T20:32:50;100890.88;;;9.18;100.00
31285;BME280;56605;51.516;6.742;2022-12-20T20:35:15;100896.34;;;9.16;100.00
31285;BME280;56605;51.516;6.742;2022-12-20T20:37:41;100884.00;;;9.15;100.00
31285;BME280;56605;51.516;6.742;2022-12-20T20:40:06;100888.66;;;9.13;100.00
31285;BME280;56605;51.516;6.742;2022-12-20T20:42:32;100879.53;;;9.16;100.00
31285;BME280;56605;51.516;6.742;2022-12-20T20:44:57;100887.34;;;9.17;100.00
31285;BME280;56605;51.516;6.742;2022-12-20T20:47:23;100886.50;;;9.17;100.00
31285;BME280;56605;51.516;6.742;2022-12-20T20:49:48;100887.34;;;9.17;100.00
31285;BME280;56605;51.516;6.742;2022-12-20T20:52:13;100872.69;;;9.13;100.00
31285;BME280;56605;51.516;6.742;2022-12-20T20:54:38;100878.84;;;9.13;100.00
31285;BME280;56605;51.516;6.742;2022-12-20T20:57:04;100866.03;;;9.17;100.00
31285;BME280;56605;51.516;6.742;2022-12-20T20:59:29;100867.72;;;9.18;100.00
31285;BME280;56605;51.516;6.742;2022-12-20T21:01:54;100874.88;;;9.18;100.00
31285;BME280;56605;51.516;6.742;2022-12-20T21:04:20;100870.53;;;9.17;100.00
31285;BME280;56605;51.516;6.742;2022-12-20T21:06:45;100863.38;;;9.17;100.00
31285;BME280;56605;51.516;6.742;2022-12-20T21:09:11;100867.06;;;9.16;100.00
31285;BME280;56605;51.516;6.742;2022-12-20T21:11:37;100868.03;;;9.15;100.00
31285;BME280;56605;51.516;6.742;2022-12-20T21:14:02;100866.34;;;9.14;100.00
31285;BME280;56605;51.516;6.742;2022-12-20T21:16:27;100859.53;;;9.11;100.00